Time;durP1;ratioP1;P1;durP2;ratioP2;P2;SDS_P1;SDS_P2;PMS_P1;PMS_P2;Temp;Humidity;BMP_temperature;BMP_pressure;BME280_temperature;BME280_humidity;BME280_pressure;Samples;Min_cycle;Max_cycle;Signal;HPM_P1;HPM_P2
2022/04/12 00:00:15;;;;;;;16.20;8.80;;;;;;;;;;5026474;28;20209;-65
2022/04/12 00:02:40;;;;;;;10.97;7.57;;;;;;;;;;5019480;28;20216;-65
2022/04/12 00:05:06;;;;;;;14.53;8.27;;;;;;;;;;5022065;28;20235;-65
2022/04/12 00:07:32;;;;;;;14.83;8.10;;;;;;;;;;5022936;28;20189;-65
2022/04/12 00:09:57;;;;;;;12.87;7.67;;;;;;;;;;5018871;28;20287;-65
2022/04/12 00:12:23;;;;;;;16.23;8.23;;;;;;;;;;5026163;28;20201;-65
2022/04/12 00:14:49;;;;;;;14.37;8.50;;;;;;;;;;5012968;28;20223;-65
2022/04/12 00:19:58;;;;;;;15.10;8.10;;;;;;;;;;5015962;28;20197;-65
2022/04/12 00:22:24;;;;;;;12.63;7.50;;;;;;;;;;5021179;28;20186;-65
2022/04/12 00:24:49;;;;;;;12.80;8.30;;;;;;;;;;5021869;28;20201;-65
2022/04/12 00:27:14;;;;;;;19.20;8.40;;;;;;;;;;5019044;28;20573;-65
2022/04/12 00:29:40;;;;;;;14.10;8.13;;;;;;;;;;5022683;28;20366;-65
2022/04/12 00:32:06;;;;;;;19.80;8.57;;;;;;;;;;5011959;28;20671;-65
2022/04/12 00:34:32;;;;;;;12.63;8.00;;;;;;;;;;5015019;28;20271;-65
2022/04/12 00:36:57;;;;;;;12.93;7.93;;;;;;;;;;5023124;28;20213;-65
2022/04/12 00:39:22;;;;;;;15.00;8.27;;;;;;;;;;5025456;28;20269;-65
2022/04/12 00:41:48;;;;;;;15.50;8.37;;;;;;;;;;5013907;28;20194;-65
2022/04/12 00:44:13;;;;;;;13.83;7.77;;;;;;;;;;5025353;28;20181;-65
2022/04/12 00:46:38;;;;;;;12.97;8.43;;;;;;;;;;5024827;28;20185;-65
2022/04/12 00:49:03;;;;;;;11.47;7.53;;;;;;;;;;5027891;28;20198;-65
2022/04/12 00:51:29;;;;;;;13.27;7.90;;;;;;;;;;5022302;28;20205;-65
2022/04/12 00:53:56;;;;;;;14.13;8.07;;;;;;;;;;5014786;28;20194;-65
2022/04/12 00:56:22;;;;;;;12.53;7.30;;;;;;;;;;5019694;28;20189;-65
2022/04/12 00:58:49;;;;;;;14.03;8.10;;;;;;;;;;5020058;28;20233;-66
2022/04/12 01:01:15;;;;;;;10.47;7.07;;;;;;;;;;5019642;28;20182;-65
2022/04/12 01:03:40;;;;;;;11.60;7.57;;;;;;;;;;5023900;28;20193;-65
2022/04/12 01:06:06;;;;;;;13.90;7.63;;;;;;;;;;5025874;28;20221;-65
2022/04/12 01:08:32;;;;;;;13.97;7.67;;;;;;;;;;5031699;28;20620;-65
2022/04/12 01:10:59;;;;;;;13.33;8.00;;;;;;;;;;5021792;28;20233;-65
2022/04/12 01:13:25;;;;;;;13.77;7.80;;;;;;;;;;5021844;28;20194;-65
2022/04/12 01:15:50;;;;;;;13.07;7.70;;;;;;;;;;5027799;28;20531;-65
2022/04/12 01:18:16;;;;;;;11.73;7.90;;;;;;;;;;5015554;28;20608;-65
2022/04/12 01:20:41;;;;;;;14.70;7.43;;;;;;;;;;5029201;28;20694;-66
2022/04/12 01:23:10;;;;;;;13.03;8.40;;;;;;;;;;5025879;28;20273;-66
2022/04/12 01:25:37;;;;;;;12.67;7.80;;;;;;;;;;5030992;28;20182;-65
2022/04/12 01:28:02;;;;;;;12.37;7.83;;;;;;;;;;5023736;28;20178;-65
2022/04/12 01:30:28;;;;;;;13.93;8.20;;;;;;;;;;5030246;28;20216;-65
2022/04/12 01:32:53;;;;;;;17.13;8.23;;;;;;;;;;5022718;28;20185;-65
2022/04/12 01:35:19;;;;;;;14.83;8.23;;;;;;;;;;5014845;28;20190;-65
2022/04/12 01:37:44;;;;;;;11.97;8.03;;;;;;;;;;5023121;28;20182;-65
2022/04/12 01:40:10;;;;;;;13.90;7.57;;;;;;;;;;5024382;28;20317;-65
2022/04/12 01:42:37;;;;;;;12.47;7.77;;;;;;;;;;5026376;28;20715;-65
2022/04/12 01:45:03;;;;;;;16.13;8.17;;;;;;;;;;5019447;28;20186;-65
2022/04/12 01:47:29;;;;;;;11.80;7.53;;;;;;;;;;5023849;28;20580;-65
2022/04/12 01:49:54;;;;;;;11.63;7.67;;;;;;;;;;5023652;28;20741;-65
2022/04/12 01:52:20;;;;;;;14.80;8.00;;;;;;;;;;5021349;28;20186;-65
2022/04/12 01:54:45;;;;;;;13.87;7.63;;;;;;;;;;5029587;28;20263;-65
2022/04/12 01:57:11;;;;;;;13.23;8.33;;;;;;;;;;5022536;28;20213;-65
2022/04/12 01:59:36;;;;;;;12.13;7.73;;;;;;;;;;5023105;28;20725;-65
2022/04/12 02:02:01;;;;;;;15.80;7.93;;;;;;;;;;5016538;28;20183;-65
2022/04/12 02:04:27;;;;;;;12.37;7.97;;;;;;;;;;5022132;28;20686;-65
2022/04/12 02:06:52;;;;;;;11.07;6.97;;;;;;;;;;5015782;28;20257;-65
2022/04/12 02:09:17;;;;;;;13.17;7.53;;;;;;;;;;5016150;28;20292;-64
2022/04/12 02:11:43;;;;;;;14.60;7.30;;;;;;;;;;5014872;28;20320;-65
2022/04/12 02:14:08;;;;;;;10.87;7.07;;;;;;;;;;5025618;28;20196;-65
2022/04/12 02:16:34;;;;;;;12.77;7.97;;;;;;;;;;5027161;28;20202;-65
2022/04/12 02:18:59;;;;;;;14.23;8.37;;;;;;;;;;5028474;28;20257;-65
2022/04/12 02:21:25;;;;;;;12.17;8.07;;;;;;;;;;5025207;28;20653;-65
2022/04/12 02:23:50;;;;;;;11.37;7.63;;;;;;;;;;5028595;28;20552;-65
2022/04/12 02:26:15;;;;;;;12.43;8.17;;;;;;;;;;5026113;28;20189;-66
2022/04/12 02:28:41;;;;;;;11.40;7.17;;;;;;;;;;5021305;28;20190;-66
2022/04/12 02:31:06;;;;;;;15.27;7.97;;;;;;;;;;5027310;28;20248;-66
2022/04/12 02:33:31;;;;;;;12.03;7.23;;;;;;;;;;5022306;28;20179;-67
2022/04/12 02:35:57;;;;;;;10.33;7.07;;;;;;;;;;5016140;28;20182;-66
2022/04/12 02:38:22;;;;;;;11.50;7.27;;;;;;;;;;5027767;28;20548;-66
2022/04/12 02:40:47;;;;;;;12.90;7.93;;;;;;;;;;5028658;28;20244;-66
2022/04/12 02:43:13;;;;;;;11.67;6.67;;;;;;;;;;5024970;28;20185;-65
2022/04/12 02:45:38;;;;;;;11.67;7.30;;;;;;;;;;5029667;28;20182;-65
2022/04/12 02:48:03;;;;;;;12.57;7.77;;;;;;;;;;5025094;28;20186;-65
2022/04/12 02:50:29;;;;;;;12.17;7.33;;;;;;;;;;5025666;28;20273;-65
2022/04/12 02:52:54;;;;;;;13.27;6.70;;;;;;;;;;5024258;28;20190;-65
2022/04/12 02:55:20;;;;;;;12.47;7.03;;;;;;;;;;5028399;28;20182;-66
2022/04/12 02:57:45;;;;;;;12.53;7.13;;;;;;;;;;5023255;28;20504;-66
2022/04/12 03:00:11;;;;;;;11.17;7.57;;;;;;;;;;5017942;28;20183;-66
2022/04/12 03:02:36;;;;;;;11.63;7.03;;;;;;;;;;5027641;28;20570;-66
2022/04/12 03:05:02;;;;;;;13.10;7.37;;;;;;;;;;5025098;28;20205;-66
2022/04/12 03:07:27;;;;;;;13.73;6.77;;;;;;;;;;5009483;28;20264;-66
2022/04/12 03:09:52;;;;;;;13.77;7.27;;;;;;;;;;5025661;28;20233;-66
2022/04/12 03:12:18;;;;;;;12.93;7.47;;;;;;;;;;5017897;28;20248;-65
2022/04/12 03:14:43;;;;;;;10.20;6.77;;;;;;;;;;5024532;28;20220;-65
2022/04/12 03:17:09;;;;;;;11.30;7.20;;;;;;;;;;5015462;28;20277;-66
2022/04/12 03:19:34;;;;;;;13.50;7.57;;;;;;;;;;5021587;28;20186;-66
2022/04/12 03:21:59;;;;;;;11.07;6.73;;;;;;;;;;5013113;28;20186;-66
2022/04/12 03:24:24;;;;;;;11.53;6.83;;;;;;;;;;5017869;28;20191;-66
2022/04/12 03:26:50;;;;;;;9.13;6.60;;;;;;;;;;5018576;28;20247;-66
2022/04/12 03:29:16;;;;;;;11.40;7.20;;;;;;;;;;5025507;28;20272;-66
2022/04/12 03:31:41;;;;;;;10.83;7.33;;;;;;;;;;5020343;28;20557;-66
2022/04/12 03:34:07;;;;;;;10.73;6.83;;;;;;;;;;5016279;28;20211;-66
2022/04/12 03:36:32;;;;;;;10.70;6.90;;;;;;;;;;5018198;28;20190;-66
2022/04/12 03:38:58;;;;;;;12.33;6.93;;;;;;;;;;5017130;28;20447;-66
2022/04/12 03:41:23;;;;;;;13.67;7.03;;;;;;;;;;5023364;28;20589;-66
2022/04/12 03:43:52;;;;;;;10.40;6.80;;;;;;;;;;5016186;28;20197;-66
2022/04/12 03:46:18;;;;;;;13.50;7.20;;;;;;;;;;5027564;28;20680;-66
2022/04/12 03:48:43;;;;;;;11.60;6.70;;;;;;;;;;5023505;28;20857;-66
2022/04/12 03:51:10;;;;;;;10.83;6.70;;;;;;;;;;5022056;28;20261;-66
2022/04/12 03:53:36;;;;;;;11.63;7.13;;;;;;;;;;5017351;28;20195;-66
2022/04/12 03:56:08;;;;;;;10.40;7.07;;;;;;;;;;5023406;28;20271;-66
2022/04/12 03:58:37;;;;;;;10.17;6.80;;;;;;;;;;5012180;28;20187;-66
2022/04/12 04:01:04;;;;;;;11.73;6.17;;;;;;;;;;5018889;28;20232;-66
2022/04/12 04:03:29;;;;;;;9.80;7.23;;;;;;;;;;5025601;28;20259;-66
2022/04/12 04:05:55;;;;;;;11.27;6.53;;;;;;;;;;5027397;28;20642;-66
2022/04/12 04:08:21;;;;;;;12.00;6.77;;;;;;;;;;5026279;28;20446;-65
2022/04/12 04:10:46;;;;;;;9.73;6.10;;;;;;;;;;5016392;28;20273;-66
2022/04/12 04:13:11;;;;;;;9.40;6.07;;;;;;;;;;5018497;28;20190;-65
2022/04/12 04:15:37;;;;;;;9.83;6.03;;;;;;;;;;5023618;28;20190;-65
2022/04/12 04:18:03;;;;;;;11.27;6.60;;;;;;;;;;5013854;28;20532;-65
2022/04/12 04:20:28;;;;;;;11.20;6.63;;;;;;;;;;5015000;28;20453;-65
2022/04/12 04:22:53;;;;;;;11.13;6.13;;;;;;;;;;5013771;28;20212;-65
2022/04/12 04:25:19;;;;;;;8.73;6.30;;;;;;;;;;5017603;28;20185;-66
2022/04/12 04:27:44;;;;;;;11.03;6.53;;;;;;;;;;5018597;28;20191;-66
2022/04/12 04:30:11;;;;;;;11.33;6.37;;;;;;;;;;5022526;28;20602;-66
2022/04/12 04:32:37;;;;;;;10.27;6.87;;;;;;;;;;5021600;28;20185;-66
2022/04/12 04:35:04;;;;;;;13.07;6.60;;;;;;;;;;5021374;28;20209;-66
2022/04/12 04:37:29;;;;;;;10.40;6.50;;;;;;;;;;5022103;28;20185;-65
2022/04/12 04:39:54;;;;;;;9.37;6.23;;;;;;;;;;5025038;28;20251;-66
2022/04/12 04:42:20;;;;;;;10.70;6.30;;;;;;;;;;5020955;28;20580;-66
2022/04/12 04:44:47;;;;;;;9.50;6.20;;;;;;;;;;5024750;28;20182;-66
2022/04/12 04:47:12;;;;;;;9.83;6.00;;;;;;;;;;5019949;28;20189;-66
2022/04/12 04:49:38;;;;;;;9.77;6.40;;;;;;;;;;5023589;28;20202;-66
2022/04/12 04:52:03;;;;;;;12.17;6.17;;;;;;;;;;5023539;28;20267;-66
2022/04/12 04:54:29;;;;;;;12.67;6.57;;;;;;;;;;5024613;28;20388;-66
2022/04/12 04:56:54;;;;;;;10.77;6.53;;;;;;;;;;5024079;28;20700;-66
2022/04/12 04:59:19;;;;;;;11.20;6.00;;;;;;;;;;5025743;28;20192;-66
2022/04/12 05:01:45;;;;;;;13.10;6.33;;;;;;;;;;5024755;28;20320;-66
2022/04/12 05:04:10;;;;;;;12.07;6.03;;;;;;;;;;5025927;28;20636;-67
2022/04/12 05:06:35;;;;;;;10.83;5.77;;;;;;;;;;5025390;28;20510;-66
2022/04/12 05:09:01;;;;;;;15.70;5.93;;;;;;;;;;5022214;28;20202;-66
2022/04/12 05:11:26;;;;;;;10.13;6.63;;;;;;;;;;5019801;28;20226;-66
2022/04/12 05:13:52;;;;;;;10.20;6.70;;;;;;;;;;5022478;28;20185;-66
2022/04/12 05:16:17;;;;;;;10.73;5.47;;;;;;;;;;5023603;28;20541;-66
2022/04/12 05:18:42;;;;;;;9.73;6.40;;;;;;;;;;5021979;28;20292;-66
2022/04/12 05:21:08;;;;;;;7.43;5.60;;;;;;;;;;5024371;28;20182;-65
2022/04/12 05:23:33;;;;;;;9.63;6.00;;;;;;;;;;5018125;28;20502;-65
2022/04/12 05:25:59;;;;;;;9.07;5.80;;;;;;;;;;5023226;28;20237;-65
2022/04/12 05:28:25;;;;;;;10.70;5.60;;;;;;;;;;5020849;28;20212;-65
2022/04/12 05:30:50;;;;;;;11.60;6.17;;;;;;;;;;5024765;28;20268;-66
2022/04/12 05:33:15;;;;;;;13.60;6.00;;;;;;;;;;5019082;28;20190;-65
2022/04/12 05:35:41;;;;;;;10.20;5.87;;;;;;;;;;5020932;28;20173;-65
2022/04/12 05:38:07;;;;;;;9.20;6.03;;;;;;;;;;5021406;28;20167;-65
2022/04/12 05:40:33;;;;;;;13.37;6.60;;;;;;;;;;5024608;28;20193;-64
2022/04/12 05:42:58;;;;;;;9.50;6.33;;;;;;;;;;5021545;28;20262;-65
2022/04/12 05:45:24;;;;;;;12.03;6.27;;;;;;;;;;5021155;28;20276;-65
2022/04/12 05:47:53;;;;;;;13.13;6.20;;;;;;;;;;5018315;28;20190;-65
2022/04/12 05:50:21;;;;;;;9.17;5.50;;;;;;;;;;5019588;28;20899;-65
2022/04/12 05:52:46;;;;;;;8.73;5.67;;;;;;;;;;5023499;28;20244;-65
2022/04/12 05:55:17;;;;;;;12.80;6.20;;;;;;;;;;5026585;28;20623;-66
2022/04/12 05:57:53;;;;;;;8.27;5.53;;;;;;;;;;5022263;28;20197;-66
2022/04/12 06:00:20;;;;;;;11.93;6.40;;;;;;;;;;5019016;28;20249;-67
2022/04/12 06:02:46;;;;;;;10.00;5.70;;;;;;;;;;5016628;28;20186;-66
2022/04/12 06:05:13;;;;;;;10.53;5.80;;;;;;;;;;5024915;28;20186;-66
2022/04/12 06:07:40;;;;;;;10.03;6.27;;;;;;;;;;5019838;28;20186;-66
2022/04/12 06:10:06;;;;;;;9.93;5.70;;;;;;;;;;5025459;28;20194;-66
2022/04/12 06:12:31;;;;;;;8.90;6.03;;;;;;;;;;5021707;28;20574;-66
2022/04/12 06:14:57;;;;;;;11.17;6.53;;;;;;;;;;5026435;28;20231;-67
2022/04/12 06:17:34;;;;;;;8.00;5.77;;;;;;;;;;5025288;28;20205;-66
2022/04/12 06:20:04;;;;;;;9.48;6.05;;;;;;;;;;5024652;28;20187;-66
2022/04/12 06:22:30;;;;;;;9.55;6.32;;;;;;;;;;5020607;28;20190;-65
2022/04/12 06:24:55;;;;;;;13.45;6.82;;;;;;;;;;5019156;28;20182;-65
2022/04/12 06:27:29;;;;;;;9.52;5.82;;;;;;;;;;5023936;28;20182;-65
2022/04/12 06:29:54;;;;;;;7.80;5.03;;;;;;;;;;5022714;28;20460;-66
2022/04/12 06:32:20;;;;;;;10.30;6.43;;;;;;;;;;5023374;28;20540;-66
2022/04/12 06:34:45;;;;;;;10.85;6.78;;;;;;;;;;5023436;28;20194;-64
2022/04/12 06:37:10;;;;;;;9.38;6.60;;;;;;;;;;5018482;28;20186;-65
2022/04/12 06:39:36;;;;;;;9.75;5.63;;;;;;;;;;5020736;28;20175;-66
2022/04/12 06:42:01;;;;;;;12.50;6.25;;;;;;;;;;5024955;28;20178;-65
2022/04/12 06:44:29;;;;;;;11.00;6.18;;;;;;;;;;5026710;28;20205;-66
2022/04/12 06:46:55;;;;;;;9.77;5.90;;;;;;;;;;5025930;28;20189;-65
2022/04/12 06:49:20;;;;;;;8.07;5.55;;;;;;;;;;5026298;28;20202;-66
2022/04/12 06:51:45;;;;;;;11.13;5.90;;;;;;;;;;5027215;28;20195;-66
2022/04/12 06:54:10;;;;;;;8.57;6.03;;;;;;;;;;5024763;28;20194;-66
2022/04/12 06:56:36;;;;;;;9.82;5.68;;;;;;;;;;5027598;28;20190;-66
2022/04/12 06:59:01;;;;;;;12.88;6.18;;;;;;;;;;5026434;28;20680;-66
2022/04/12 07:01:26;;;;;;;9.80;5.93;;;;;;;;;;5026879;28;20264;-66
2022/04/12 07:03:52;;;;;;;10.25;6.18;;;;;;;;;;5025068;28;20190;-66
2022/04/12 07:06:17;;;;;;;9.38;5.43;;;;;;;;;;5026973;28;20205;-66
2022/04/12 07:08:42;;;;;;;8.35;5.45;;;;;;;;;;5021529;28;20210;-66
2022/04/12 07:11:08;;;;;;;8.70;5.93;;;;;;;;;;5022244;28;20223;-66
2022/04/12 07:13:33;;;;;;;11.45;6.05;;;;;;;;;;5021665;28;20190;-66
2022/04/12 07:15:58;;;;;;;7.72;5.53;;;;;;;;;;5027714;28;20657;-66
2022/04/12 07:18:24;;;;;;;12.85;5.53;;;;;;;;;;5014928;28;20205;-66
2022/04/12 07:20:49;;;;;;;8.40;6.10;;;;;;;;;;5022415;28;20197;-66
2022/04/12 07:23:14;;;;;;;8.57;5.30;;;;;;;;;;5021311;28;20548;-66
2022/04/12 07:25:40;;;;;;;11.02;6.18;;;;;;;;;;5021251;28;20483;-67
2022/04/12 07:28:05;;;;;;;8.38;5.55;;;;;;;;;;5027102;28;20309;-66
2022/04/12 07:30:30;;;;;;;9.73;5.28;;;;;;;;;;5027674;28;20675;-66
2022/04/12 07:32:56;;;;;;;10.40;6.15;;;;;;;;;;5026420;28;20205;-67
2022/04/12 07:35:22;;;;;;;9.15;5.90;;;;;;;;;;5024568;28;20266;-67
2022/04/12 07:37:47;;;;;;;9.50;5.68;;;;;;;;;;5025125;28;20548;-67
2022/04/12 07:40:14;;;;;;;9.95;5.38;;;;;;;;;;5025513;28;20185;-65
2022/04/12 07:42:39;;;;;;;10.65;5.07;;;;;;;;;;5024929;28;20186;-66
2022/04/12 07:45:05;;;;;;;8.65;5.50;;;;;;;;;;5025066;28;20720;-66
2022/04/12 07:47:33;;;;;;;8.48;4.97;;;;;;;;;;5022910;28;20637;-67
2022/04/12 07:49:59;;;;;;;8.02;4.78;;;;;;;;;;5028537;28;20607;-65
2022/04/12 07:52:24;;;;;;;8.57;5.20;;;;;;;;;;5025705;28;20174;-66
2022/04/12 07:54:50;;;;;;;8.45;4.93;;;;;;;;;;5028339;28;20186;-65
2022/04/12 07:57:15;;;;;;;8.82;4.88;;;;;;;;;;5026894;28;20186;-66
2022/04/12 07:59:40;;;;;;;8.65;4.85;;;;;;;;;;5025368;28;20721;-66
2022/04/12 08:02:06;;;;;;;6.85;4.82;;;;;;;;;;5023907;28;20309;-65
2022/04/12 08:04:31;;;;;;;9.98;4.60;;;;;;;;;;5024093;28;20189;-65
2022/04/12 08:06:56;;;;;;;8.70;5.00;;;;;;;;;;5028214;28;20189;-65
2022/04/12 08:09:22;;;;;;;8.13;4.85;;;;;;;;;;5026517;28;20288;-65
2022/04/12 08:11:47;;;;;;;7.97;4.88;;;;;;;;;;5026652;28;20313;-66
2022/04/12 08:14:12;;;;;;;8.23;5.28;;;;;;;;;;5025808;28;20680;-66
2022/04/12 08:16:38;;;;;;;6.63;4.57;;;;;;;;;;5024714;28;20181;-65
2022/04/12 08:19:03;;;;;;;10.77;5.13;;;;;;;;;;5021637;28;20185;-65
2022/04/12 08:21:37;;;;;;;8.07;4.68;;;;;;;;;;5027201;28;20213;-65
2022/04/12 08:24:03;;;;;;;7.63;4.45;;;;;;;;;;5025809;28;20217;-66
2022/04/12 08:26:29;;;;;;;8.30;4.90;;;;;;;;;;5025567;28;20593;-66
2022/04/12 08:28:54;;;;;;;8.65;4.78;;;;;;;;;;5024380;28;20206;-66
2022/04/12 08:31:20;;;;;;;9.82;4.80;;;;;;;;;;5026760;28;20275;-66
2022/04/12 08:33:45;;;;;;;6.78;4.13;;;;;;;;;;5024987;28;20272;-66
2022/04/12 08:36:11;;;;;;;8.00;4.90;;;;;;;;;;5027116;28;20677;-66
2022/04/12 08:38:36;;;;;;;8.75;4.97;;;;;;;;;;5025067;28;20170;-66
2022/04/12 08:41:02;;;;;;;8.88;4.80;;;;;;;;;;5024406;28;20594;-66
2022/04/12 08:43:29;;;;;;;8.52;4.80;;;;;;;;;;5020775;28;20182;-66
2022/04/12 08:45:55;;;;;;;9.05;4.82;;;;;;;;;;5024497;28;20248;-66
2022/04/12 08:48:20;;;;;;;7.05;4.72;;;;;;;;;;5025418;28;20412;-66
2022/04/12 08:50:47;;;;;;;7.70;4.20;;;;;;;;;;5024771;28;20183;-66
2022/04/12 08:53:16;;;;;;;8.60;4.57;;;;;;;;;;5025090;28;20185;-66
2022/04/12 08:55:41;;;;;;;11.50;4.45;;;;;;;;;;5024440;28;20666;-66
2022/04/12 08:58:07;;;;;;;12.02;4.80;;;;;;;;;;5025215;28;20186;-66
2022/04/12 09:00:32;;;;;;;9.30;4.40;;;;;;;;;;5024927;28;20261;-66
2022/04/12 09:02:59;;;;;;;6.13;4.30;;;;;;;;;;5024930;28;20553;-66
2022/04/12 09:05:25;;;;;;;9.60;4.65;;;;;;;;;;5023800;28;20608;-66
2022/04/12 09:07:51;;;;;;;8.48;3.80;;;;;;;;;;5026237;28;20188;-66
2022/04/12 09:10:17;;;;;;;7.72;4.25;;;;;;;;;;5022035;28;20580;-66
2022/04/12 09:12:42;;;;;;;6.95;4.32;;;;;;;;;;5024143;28;20194;-66
2022/04/12 09:15:14;;;;;;;7.50;4.18;;;;;;;;;;5026392;28;20186;-66
2022/04/12 09:17:41;;;;;;;11.63;4.78;;;;;;;;;;5022229;28;20738;-66
2022/04/12 09:20:19;;;;;;;8.25;4.28;;;;;;;;;;5025940;28;20182;-66
2022/04/12 09:22:44;;;;;;;8.25;4.30;;;;;;;;;;5026656;28;20190;-66
2022/04/12 09:25:11;;;;;;;7.63;4.47;;;;;;;;;;5026193;28;20328;-66
2022/04/12 09:27:37;;;;;;;7.90;4.38;;;;;;;;;;5026087;28;20511;-66
2022/04/12 09:30:13;;;;;;;9.93;4.80;;;;;;;;;;5026522;28;20202;-66
2022/04/12 09:32:41;;;;;;;7.85;4.25;;;;;;;;;;5026743;28;20182;-66
2022/04/12 09:35:07;;;;;;;10.43;4.70;;;;;;;;;;5028828;28;20655;-65
2022/04/12 09:37:38;;;;;;;7.63;5.03;;;;;;;;;;5029833;28;20608;-65
2022/04/12 09:40:05;;;;;;;6.72;4.43;;;;;;;;;;5023434;28;20205;-66
2022/04/12 09:42:46;;;;;;;8.93;4.35;;;;;;;;;;5025556;28;20548;-66
2022/04/12 09:45:14;;;;;;;7.18;4.43;;;;;;;;;;5030543;28;20635;-65
2022/04/12 09:47:40;;;;;;;7.90;4.07;;;;;;;;;;5024938;28;20569;-65
2022/04/12 09:50:07;;;;;;;9.18;4.85;;;;;;;;;;5028863;28;20202;-66
2022/04/12 09:52:32;;;;;;;7.82;4.68;;;;;;;;;;5028565;28;20186;-66
2022/04/12 09:54:58;;;;;;;7.63;4.00;;;;;;;;;;5029728;28;20178;-66
2022/04/12 09:57:25;;;;;;;8.18;4.32;;;;;;;;;;5029458;28;20167;-66
2022/04/12 09:59:54;;;;;;;9.77;4.53;;;;;;;;;;5026693;28;20521;-66
2022/04/12 10:02:20;;;;;;;6.93;4.75;;;;;;;;;;5027342;28;20186;-66
2022/04/12 10:04:48;;;;;;;9.27;4.45;;;;;;;;;;5023911;28;20183;-66
2022/04/12 10:07:14;;;;;;;7.05;4.15;;;;;;;;;;5008760;28;20716;-66
2022/04/12 10:09:42;;;;;;;8.48;3.95;;;;;;;;;;5023382;28;20603;-66
2022/04/12 10:12:08;;;;;;;12.68;4.53;;;;;;;;;;5020449;28;20226;-66
2022/04/12 10:14:35;;;;;;;6.53;3.88;;;;;;;;;;5023620;28;20186;-66
2022/04/12 10:17:01;;;;;;;7.53;4.18;;;;;;;;;;5015937;28;20184;-66
2022/04/12 10:19:27;;;;;;;7.90;4.47;;;;;;;;;;5027464;28;20703;-66
2022/04/12 10:21:52;;;;;;;7.13;4.35;;;;;;;;;;5014383;28;20178;-66
2022/04/12 10:24:18;;;;;;;7.10;4.32;;;;;;;;;;5016236;28;20489;-66
2022/04/12 10:26:46;;;;;;;9.25;4.65;;;;;;;;;;5020439;28;20186;-66
2022/04/12 10:29:13;;;;;;;6.78;4.68;;;;;;;;;;5025479;28;20297;-66
2022/04/12 10:31:52;;;;;;;8.82;3.92;;;;;;;;;;5029034;28;20209;-66
2022/04/12 10:34:17;;;;;;;8.73;4.63;;;;;;;;;;5025584;28;20236;-68
2022/04/12 10:36:55;;;;;;;8.13;4.65;;;;;;;;;;5029839;28;20190;-66
2022/04/12 10:39:48;;;;;;;8.60;4.50;;;;;;;;;;5025940;28;20201;-66
2022/04/12 10:42:19;;;;;;;9.13;5.15;;;;;;;;;;5005648;28;20190;-66
2022/04/12 10:44:50;;;;;;;9.55;4.63;;;;;;;;;;5025148;28;20193;-66
2022/04/12 10:47:27;;;;;;;9.30;4.40;;;;;;;;;;5024268;28;20184;-66
2022/04/12 10:50:07;;;;;;;9.95;5.18;;;;;;;;;;5024870;28;20487;-66
2022/04/12 10:52:41;;;;;;;9.98;4.78;;;;;;;;;;5029454;28;20653;-66
2022/04/12 10:55:08;;;;;;;6.88;4.57;;;;;;;;;;5023490;28;20267;-66
2022/04/12 10:57:34;;;;;;;9.57;5.10;;;;;;;;;;5028709;28;20755;-66
2022/04/12 11:00:16;;;;;;;10.93;5.05;;;;;;;;;;5029549;28;20842;-66
2022/04/12 11:02:55;;;;;;;8.50;4.90;;;;;;;;;;5020555;28;20537;-66
2022/04/12 11:05:32;;;;;;;8.60;4.10;;;;;;;;;;5010125;28;20270;-66
2022/04/12 11:07:58;;;;;;;8.43;3.83;;;;;;;;;;5024107;28;20190;-66
2022/04/12 11:10:24;;;;;;;10.68;3.70;;;;;;;;;;5028985;28;20367;-66
2022/04/12 11:13:01;;;;;;;6.13;3.85;;;;;;;;;;5015364;28;20194;-67
2022/04/12 11:15:28;;;;;;;7.63;4.28;;;;;;;;;;5008765;28;20333;-66
2022/04/12 11:18:14;;;;;;;8.20;4.28;;;;;;;;;;5023987;28;20174;-66
2022/04/12 11:20:42;;;;;;;6.78;4.05;;;;;;;;;;5016852;28;20200;-66
2022/04/12 11:23:13;;;;;;;7.25;4.38;;;;;;;;;;5029002;28;20189;-67
2022/04/12 11:25:49;;;;;;;7.88;3.70;;;;;;;;;;5016951;28;20593;-67
2022/04/12 11:28:22;;;;;;;7.60;4.53;;;;;;;;;;5028026;28;20545;-67
2022/04/12 11:30:56;;;;;;;8.07;4.10;;;;;;;;;;5029739;28;20665;-67
2022/04/12 11:33:26;;;;;;;6.95;4.22;;;;;;;;;;5027410;28;20192;-66
2022/04/12 11:35:52;;;;;;;9.13;4.13;;;;;;;;;;5027775;28;20178;-66
2022/04/12 11:38:19;;;;;;;6.05;3.80;;;;;;;;;;5021976;28;20182;-66
2022/04/12 11:40:45;;;;;;;7.47;4.00;;;;;;;;;;5029181;28;20261;-66
2022/04/12 11:43:24;;;;;;;10.02;4.72;;;;;;;;;;5027366;28;20281;-66
2022/04/12 11:45:54;;;;;;;6.28;3.80;;;;;;;;;;5027963;28;20181;-66
2022/04/12 11:48:20;;;;;;;9.80;4.35;;;;;;;;;;5027961;28;20178;-66
2022/04/12 11:50:52;;;;;;;7.35;3.30;;;;;;;;;;5025973;28;20251;-66
2022/04/12 11:53:19;;;;;;;7.35;4.30;;;;;;;;;;5028581;28;20240;-66
2022/04/12 11:55:46;;;;;;;10.55;3.70;;;;;;;;;;5027713;28;20273;-66
2022/04/12 11:58:11;;;;;;;7.65;4.53;;;;;;;;;;5021898;28;20187;-67
2022/04/12 12:00:37;;;;;;;8.02;4.57;;;;;;;;;;5019956;28;20190;-67
2022/04/12 12:03:02;;;;;;;6.53;4.47;;;;;;;;;;5025925;28;20272;-66
2022/04/12 12:05:30;;;;;;;9.77;4.43;;;;;;;;;;5018214;28;20275;-66
2022/04/12 12:08:00;;;;;;;7.72;4.20;;;;;;;;;;5019884;28;20175;-65
2022/04/12 12:10:25;;;;;;;10.18;4.75;;;;;;;;;;5018593;28;20233;-66
2022/04/12 12:12:51;;;;;;;7.50;4.13;;;;;;;;;;5014081;28;20186;-65
2022/04/12 12:15:28;;;;;;;8.25;4.70;;;;;;;;;;5013398;28;20848;-67
2022/04/12 12:18:01;;;;;;;8.20;4.25;;;;;;;;;;5028633;28;20204;-66
2022/04/12 12:20:29;;;;;;;7.05;4.47;;;;;;;;;;5017346;28;20189;-66
2022/04/12 12:23:05;;;;;;;6.60;3.78;;;;;;;;;;5028956;28;20228;-66
2022/04/12 12:25:40;;;;;;;10.73;3.83;;;;;;;;;;5014191;28;20662;-66
2022/04/12 12:28:14;;;;;;;4.82;3.25;;;;;;;;;;5026338;28;20819;-66
2022/04/12 12:30:41;;;;;;;8.05;3.53;;;;;;;;;;5013191;28;20707;-66
2022/04/12 12:33:06;;;;;;;4.80;2.58;;;;;;;;;;5027306;28;20181;-66
2022/04/12 12:35:32;;;;;;;5.75;2.80;;;;;;;;;;5020341;28;20658;-66
2022/04/12 12:38:03;;;;;;;4.63;2.90;;;;;;;;;;5018834;28;20189;-66
2022/04/12 12:40:30;;;;;;;6.90;2.47;;;;;;;;;;5025006;28;20182;-66
2022/04/12 12:42:55;;;;;;;9.23;2.88;;;;;;;;;;5027293;28;20204;-66
2022/04/12 12:45:22;;;;;;;5.88;3.50;;;;;;;;;;5024231;28;20650;-66
2022/04/12 12:47:54;;;;;;;5.60;3.35;;;;;;;;;;5026740;28;20422;-66
2022/04/12 12:50:21;;;;;;;5.95;3.17;;;;;;;;;;5024248;28;20578;-66
2022/04/12 12:52:48;;;;;;;7.20;3.70;;;;;;;;;;5025236;28;20202;-67
2022/04/12 12:55:19;;;;;;;8.30;3.70;;;;;;;;;;5026701;28;20197;-66
2022/04/12 12:57:47;;;;;;;8.05;3.53;;;;;;;;;;5016680;28;20654;-66
2022/04/12 13:00:14;;;;;;;6.10;3.80;;;;;;;;;;5024409;28;20174;-67
2022/04/12 13:02:40;;;;;;;8.18;3.75;;;;;;;;;;5024454;28;20202;-66
2022/04/12 13:05:09;;;;;;;6.78;4.32;;;;;;;;;;5023671;28;20174;-65
2022/04/12 13:07:37;;;;;;;8.82;3.88;;;;;;;;;;5026137;28;20220;-66
2022/04/12 13:10:16;;;;;;;7.75;3.83;;;;;;;;;;5027929;28;20529;-65
2022/04/12 13:12:45;;;;;;;9.57;4.35;;;;;;;;;;5027180;28;20225;-66
2022/04/12 13:15:12;;;;;;;7.03;3.95;;;;;;;;;;5028251;28;20178;-66
2022/04/12 13:17:39;;;;;;;7.60;3.75;;;;;;;;;;5029165;28;20186;-66
2022/04/12 13:20:07;;;;;;;5.55;3.63;;;;;;;;;;5027572;28;20248;-65
2022/04/12 13:22:32;;;;;;;5.95;3.70;;;;;;;;;;5028049;28;20201;-65
2022/04/12 13:24:58;;;;;;;6.75;3.80;;;;;;;;;;5028814;28;20644;-66
2022/04/12 13:27:23;;;;;;;7.80;3.95;;;;;;;;;;5027841;28;20259;-66
2022/04/12 13:29:50;;;;;;;6.18;3.85;;;;;;;;;;5028999;28;20638;-66
2022/04/12 13:32:15;;;;;;;6.80;3.75;;;;;;;;;;5026642;28;20202;-66
2022/04/12 13:34:41;;;;;;;6.28;3.83;;;;;;;;;;5028039;28;20200;-66
2022/04/12 13:37:06;;;;;;;4.57;2.80;;;;;;;;;;5024129;28;20198;-66
2022/04/12 13:39:32;;;;;;;5.30;2.63;;;;;;;;;;5028522;28;20182;-65
2022/04/12 13:42:00;;;;;;;5.40;2.45;;;;;;;;;;5028185;28;20190;-66
2022/04/12 13:44:25;;;;;;;3.47;2.25;;;;;;;;;;5024461;28;20281;-66
2022/04/12 13:46:52;;;;;;;3.33;2.60;;;;;;;;;;5028164;28;20276;-66
2022/04/12 13:49:17;;;;;;;2.72;2.15;;;;;;;;;;5029051;28;20255;-66
2022/04/12 13:51:43;;;;;;;3.65;2.60;;;;;;;;;;5025193;28;20658;-67
2022/04/12 13:54:08;;;;;;;6.50;2.63;;;;;;;;;;5027037;28;20186;-66
2022/04/12 13:56:34;;;;;;;3.03;2.20;;;;;;;;;;5028292;28;20567;-66
2022/04/12 13:58:59;;;;;;;4.38;2.63;;;;;;;;;;5026689;28;20185;-66
2022/04/12 14:01:24;;;;;;;5.43;2.42;;;;;;;;;;5029379;28;20194;-66
2022/04/12 14:03:50;;;;;;;4.70;2.53;;;;;;;;;;5026396;28;20269;-66
2022/04/12 14:06:15;;;;;;;4.00;2.60;;;;;;;;;;5028864;28;20240;-65
2022/04/12 14:08:41;;;;;;;4.53;2.88;;;;;;;;;;5029692;28;20587;-65
2022/04/12 14:11:07;;;;;;;4.90;2.58;;;;;;;;;;5027528;28;20249;-66
2022/04/12 14:13:33;;;;;;;3.03;2.30;;;;;;;;;;5027670;28;20189;-66
2022/04/12 14:15:59;;;;;;;4.07;2.00;;;;;;;;;;5024268;28;20224;-66
2022/04/12 14:18:24;;;;;;;3.42;2.10;;;;;;;;;;5027969;28;20592;-66
2022/04/12 14:20:51;;;;;;;2.90;2.13;;;;;;;;;;5025951;28;20182;-66
2022/04/12 14:23:16;;;;;;;2.75;1.70;;;;;;;;;;5026935;28;20188;-66
2022/04/12 14:25:42;;;;;;;3.20;1.63;;;;;;;;;;5026762;28;20277;-66
2022/04/12 14:28:08;;;;;;;4.90;2.05;;;;;;;;;;5029537;28;20259;-66
2022/04/12 14:30:35;;;;;;;6.32;2.20;;;;;;;;;;5025200;28;20669;-65
2022/04/12 14:33:02;;;;;;;4.57;2.38;;;;;;;;;;5028362;28;20190;-66
2022/04/12 14:35:28;;;;;;;4.60;1.80;;;;;;;;;;5026688;28;20186;-66
2022/04/12 14:37:54;;;;;;;2.83;1.38;;;;;;;;;;5028558;28;20178;-66